Time;durP1;ratioP1;P1;durP2;ratioP2;P2;SDS_P1;SDS_P2;PMS_P1;PMS_P2;Temp;Humidity;BMP_temperature;BMP_pressure;BME280_temperature;BME280_humidity;BME280_pressure;Samples;Min_cycle;Max_cycle;Signal;HPM_P1;HPM_P2
2023/08/02 00:01:31;;;;;;;23.00;6.03;;;17.30;99.90;;;;;;5069090;28;20086;-66
2023/08/02 00:03:57;;;;;;;21.02;5.82;;;17.30;99.90;;;;;;5068913;28;20029;-69
2023/08/02 00:06:22;;;;;;;21.98;5.82;;;17.40;99.90;;;;;;5068753;28;20025;-67
2023/08/02 00:08:48;;;;;;;26.58;6.45;;;17.30;99.90;;;;;;5068756;28;20483;-66
2023/08/02 00:11:17;;;;;;;22.25;6.53;;;17.30;99.90;;;;;;5068711;28;20103;-66
2023/08/02 00:13:43;;;;;;;22.65;6.07;;;17.20;99.90;;;;;;5068565;28;20385;-66
2023/08/02 00:16:10;;;;;;;29.55;7.20;;;17.10;99.90;;;;;;5067551;28;20032;-67
2023/08/02 00:18:35;;;;;;;25.80;7.13;;;17.00;99.90;;;;;;5068478;28;20098;-68
2023/08/02 00:21:01;;;;;;;24.70;7.60;;;17.00;99.90;;;;;;5068660;28;20603;-66
2023/08/02 00:23:26;;;;;;;24.45;6.38;;;16.90;99.90;;;;;;5068917;28;20495;-66
2023/08/02 00:25:52;;;;;;;25.52;7.88;;;16.90;99.90;;;;;;5068362;28;20480;-66
2023/08/02 00:28:17;;;;;;;26.52;7.07;;;16.80;99.90;;;;;;5068160;28;20053;-66
2023/08/02 00:30:44;;;;;;;24.95;7.95;;;16.80;99.90;;;;;;5068407;28;20047;-67
2023/08/02 00:33:10;;;;;;;23.23;6.70;;;16.70;99.90;;;;;;5067948;28;20033;-67
2023/08/02 00:35:36;;;;;;;23.92;6.30;;;16.70;99.90;;;;;;5068325;28;20028;-67
2023/08/02 00:38:01;;;;;;;25.02;9.02;;;16.70;99.90;;;;;;5068661;28;20427;-66
2023/08/02 00:40:27;;;;;;;24.17;7.07;;;16.70;99.90;;;;;;5056559;28;20469;-66
2023/08/02 00:42:52;;;;;;;26.70;7.57;;;16.60;99.90;;;;;;5054831;28;20104;-67
2023/08/02 00:45:18;;;;;;;28.05;7.53;;;16.60;99.90;;;;;;5055017;28;20021;-66
2023/08/02 00:47:43;;;;;;;25.95;6.95;;;16.60;99.90;;;;;;5053498;28;20036;-67
2023/08/02 00:50:09;;;;;;;20.83;6.50;;;16.60;99.90;;;;;;5054490;28;20441;-66
2023/08/02 00:52:35;;;;;;;23.40;6.85;;;16.60;99.90;;;;;;5054767;28;20401;-66
2023/08/02 00:55:01;;;;;;;22.88;7.15;;;16.60;99.90;;;;;;5054465;28;20037;-66
2023/08/02 00:57:26;;;;;;;31.08;7.80;;;16.60;99.90;;;;;;5054772;28;20032;-67
2023/08/02 00:59:52;;;;;;;21.83;8.00;;;16.60;99.90;;;;;;5054623;28;20059;-66
2023/08/02 01:02:17;;;;;;;19.85;6.63;;;16.60;99.90;;;;;;5054383;28;20040;-66
2023/08/02 01:04:45;;;;;;;22.95;7.43;;;16.60;99.90;;;;;;5054771;28;20111;-66
2023/08/02 01:07:13;;;;;;;21.70;6.88;;;16.60;99.90;;;;;;5054547;28;20066;-66
2023/08/02 01:09:52;;;;;;;21.60;6.38;;;16.60;99.90;;;;;;5054477;28;20052;-66
2023/08/02 01:12:21;;;;;;;20.85;6.38;;;16.60;99.90;;;;;;5054580;28;20097;-66
2023/08/02 01:14:52;;;;;;;24.88;6.65;;;16.60;99.90;;;;;;5054340;28;20029;-67
2023/08/02 01:17:19;;;;;;;15.70;6.43;;;16.60;99.90;;;;;;5054145;28;20028;-67
2023/08/02 01:19:44;;;;;;;20.83;7.20;;;16.60;99.90;;;;;;5054099;28;20029;-68
2023/08/02 01:22:10;;;;;;;24.25;7.10;;;16.60;99.90;;;;;;5054187;28;20028;-66
2023/08/02 01:24:36;;;;;;;21.25;6.45;;;16.60;99.90;;;;;;5054070;28;20025;-66
2023/08/02 01:27:08;;;;;;;19.98;7.03;;;16.60;99.90;;;;;;5054184;28;20090;-66
2023/08/02 01:29:37;;;;;;;21.63;6.72;;;16.60;99.90;;;;;;5053967;28;20052;-66
2023/08/02 01:32:05;;;;;;;21.33;6.57;;;16.50;99.90;;;;;;5054362;28;20043;-66
2023/08/02 01:34:31;;;;;;;21.25;6.93;;;16.40;99.90;;;;;;5053657;28;20033;-66
2023/08/02 01:36:57;;;;;;;21.77;7.57;;;16.40;99.90;;;;;;5053932;28;20021;-66
2023/08/02 01:39:22;;;;;;;22.58;6.68;;;16.30;99.90;;;;;;5053713;28;20037;-66
2023/08/02 01:41:48;;;;;;;18.58;6.80;;;16.30;99.90;;;;;;5053627;28;20033;-66
2023/08/02 01:44:13;;;;;;;20.63;7.00;;;16.30;99.90;;;;;;5053222;28;20112;-66
2023/08/02 01:46:39;;;;;;;21.23;8.10;;;16.30;99.90;;;;;;5053965;28;20032;-67
2023/08/02 01:49:04;;;;;;;24.40;7.50;;;16.30;99.90;;;;;;5053605;28;20039;-67
2023/08/02 01:51:30;;;;;;;20.63;7.78;;;16.30;99.90;;;;;;5052945;28;20025;-67
2023/08/02 01:53:55;;;;;;;20.75;7.13;;;16.20;99.90;;;;;;5053677;28;20063;-67
2023/08/02 01:56:21;;;;;;;19.10;7.53;;;16.20;99.90;;;;;;5053413;28;20040;-66
2023/08/02 01:58:47;;;;;;;21.65;7.93;;;16.20;99.90;;;;;;5053457;28;20154;-66
2023/08/02 02:01:12;;;;;;;20.35;7.72;;;16.30;99.90;;;;;;5053583;28;20033;-67
2023/08/02 02:03:38;;;;;;;22.13;7.88;;;16.20;99.90;;;;;;5053321;28;20029;-66
2023/08/02 02:06:04;;;;;;;20.88;8.25;;;16.20;99.90;;;;;;5053184;28;20033;-66
2023/08/02 02:08:30;;;;;;;17.48;7.40;;;16.20;99.90;;;;;;5053364;28;20072;-67
2023/08/02 02:10:55;;;;;;;24.35;8.27;;;16.30;99.90;;;;;;5053364;28;20508;-67
2023/08/02 02:13:23;;;;;;;23.42;8.35;;;16.30;99.90;;;;;;5051735;28;20480;-68
2023/08/02 02:15:49;;;;;;;25.73;7.53;;;16.30;99.90;;;;;;5053264;28;20041;-67
2023/08/02 02:18:14;;;;;;;21.65;9.23;;;16.40;99.90;;;;;;5053184;28;20036;-66
2023/08/02 02:20:40;;;;;;;21.23;8.52;;;16.40;99.90;;;;;;5053148;28;20035;-66
2023/08/02 02:23:06;;;;;;;23.27;9.05;;;16.40;99.90;;;;;;5053148;28;20465;-66
2023/08/02 02:25:32;;;;;;;20.45;7.90;;;16.40;99.90;;;;;;5053087;28;20445;-66
2023/08/02 02:27:57;;;;;;;18.70;7.53;;;16.40;99.90;;;;;;5052167;28;20071;-67
2023/08/02 02:30:23;;;;;;;22.65;8.02;;;16.40;99.90;;;;;;5052878;28;20021;-66
2023/08/02 02:32:48;;;;;;;20.70;7.78;;;16.40;99.90;;;;;;5051736;28;20487;-66
2023/08/02 02:35:14;;;;;;;19.92;7.90;;;16.40;99.90;;;;;;5052738;28;20523;-67
2023/08/02 02:37:41;;;;;;;23.25;8.60;;;16.40;99.90;;;;;;5052879;28;20056;-67
2023/08/02 02:40:07;;;;;;;24.05;8.88;;;16.30;99.90;;;;;;5052553;28;20032;-66
2023/08/02 02:42:33;;;;;;;23.80;8.77;;;16.30;99.90;;;;;;5052223;28;20025;-67
2023/08/02 02:44:59;;;;;;;24.45;8.80;;;16.30;99.90;;;;;;5052785;28;20036;-67
2023/08/02 02:47:24;;;;;;;20.60;7.70;;;16.30;99.90;;;;;;5052788;28;20029;-66
2023/08/02 02:49:50;;;;;;;21.48;8.90;;;16.20;99.90;;;;;;5052116;28;20114;-66
2023/08/02 02:52:15;;;;;;;21.35;8.65;;;16.20;99.90;;;;;;5052834;28;20074;-67
2023/08/02 02:54:41;;;;;;;21.33;9.02;;;16.20;99.90;;;;;;5052166;28;20115;-67
2023/08/02 02:57:06;;;;;;;24.00;8.57;;;16.20;99.90;;;;;;5052154;28;20028;-67
2023/08/02 02:59:32;;;;;;;20.60;7.88;;;16.20;99.90;;;;;;5052501;28;20083;-67
2023/08/02 03:01:58;;;;;;;22.98;8.48;;;16.20;99.90;;;;;;5052445;28;20029;-67
2023/08/02 03:04:25;;;;;;;24.98;9.38;;;16.20;99.90;;;;;;5050695;28;20033;-66
2023/08/02 03:06:51;;;;;;;21.65;8.32;;;16.20;99.90;;;;;;5052318;28;20023;-66
2023/08/02 03:09:17;;;;;;;26.88;9.25;;;16.20;99.90;;;;;;5052214;28;20329;-67
2023/08/02 03:11:42;;;;;;;23.50;8.30;;;16.20;99.90;;;;;;5052036;28;20031;-66
2023/08/02 03:14:08;;;;;;;26.08;9.05;;;16.20;99.90;;;;;;5052261;28;20021;-67
2023/08/02 03:16:34;;;;;;;25.73;8.30;;;16.20;99.90;;;;;;5051994;28;20424;-67
2023/08/02 03:18:59;;;;;;;22.05;9.00;;;16.20;99.90;;;;;;5052471;28;20033;-65
2023/08/02 03:21:25;;;;;;;24.83;8.93;;;16.20;99.90;;;;;;5052086;28;20021;-66
2023/08/02 03:23:50;;;;;;;17.02;8.45;;;16.20;99.90;;;;;;5051864;28;20021;-66
2023/08/02 03:26:16;;;;;;;20.88;8.57;;;16.20;99.90;;;;;;5051792;28;20067;-67
2023/08/02 03:28:41;;;;;;;20.40;8.50;;;16.10;99.90;;;;;;5051830;28;20061;-66
2023/08/02 03:31:07;;;;;;;25.90;8.63;;;16.10;99.90;;;;;;5052030;28;20029;-65
2023/08/02 03:33:32;;;;;;;26.08;9.57;;;16.10;99.90;;;;;;5052005;28;20104;-65
2023/08/02 03:35:58;;;;;;;19.98;8.73;;;16.00;99.90;;;;;;5050874;28;20044;-66
2023/08/02 03:38:23;;;;;;;25.98;9.38;;;16.10;99.90;;;;;;5052040;28;20028;-67
2023/08/02 03:40:49;;;;;;;23.88;9.07;;;16.00;99.90;;;;;;5050500;28;20037;-66
2023/08/02 03:43:14;;;;;;;24.30;8.63;;;16.00;99.90;;;;;;5051943;28;20025;-67
2023/08/02 03:45:40;;;;;;;26.60;10.07;;;16.00;99.90;;;;;;5051753;28;20532;-67
2023/08/02 03:48:06;;;;;;;23.17;9.02;;;16.10;99.90;;;;;;5051919;28;20546;-67
2023/08/02 03:50:34;;;;;;;21.92;8.32;;;16.10;99.90;;;;;;5052034;28;20033;-66
2023/08/02 03:52:59;;;;;;;21.75;8.05;;;16.10;99.90;;;;;;5051933;28;20029;-67
2023/08/02 03:55:25;;;;;;;23.80;9.55;;;16.20;99.90;;;;;;5051514;28;20036;-67
2023/08/02 03:57:50;;;;;;;26.85;8.48;;;16.20;99.90;;;;;;5050740;28;20036;-67
2023/08/02 04:00:16;;;;;;;24.33;8.75;;;16.20;99.90;;;;;;5052203;28;20036;-67
2023/08/02 04:02:42;;;;;;;22.38;7.50;;;16.30;99.90;;;;;;5052142;28;20033;-67
2023/08/02 04:05:08;;;;;;;23.35;7.63;;;16.20;99.90;;;;;;5051992;28;20029;-67
2023/08/02 04:07:34;;;;;;;19.98;7.07;;;16.30;99.90;;;;;;5052445;28;20063;-67
2023/08/02 04:09:59;;;;;;;21.83;7.38;;;16.30;99.90;;;;;;5051699;28;20032;-67
2023/08/02 04:12:25;;;;;;;22.75;7.50;;;16.30;99.90;;;;;;5052095;28;20033;-67
2023/08/02 04:14:50;;;;;;;19.00;8.25;;;16.30;99.90;;;;;;5052893;28;20028;-67
2023/08/02 04:17:16;;;;;;;23.08;8.52;;;16.40;99.90;;;;;;5055684;28;20056;-67
2023/08/02 04:19:41;;;;;;;21.30;7.95;;;16.40;99.90;;;;;;5055361;28;20205;-67
2023/08/02 04:22:07;;;;;;;22.45;9.27;;;16.50;99.90;;;;;;5055690;28;20057;-67
2023/08/02 04:24:33;;;;;;;22.45;8.25;;;16.50;99.90;;;;;;5055032;28;20061;-67
2023/08/02 04:26:58;;;;;;;27.85;9.60;;;16.50;99.90;;;;;;5055520;28;20021;-67
2023/08/02 04:29:24;;;;;;;20.65;8.93;;;16.50;99.90;;;;;;5054784;28;20102;-67
2023/08/02 04:31:50;;;;;;;24.48;8.98;;;16.60;99.90;;;;;;5055127;28;20102;-66
2023/08/02 04:34:15;;;;;;;22.40;9.52;;;16.60;99.90;;;;;;5054152;28;20385;-67
2023/08/02 04:36:41;;;;;;;24.48;10.43;;;16.60;99.90;;;;;;5055244;28;20488;-67
2023/08/02 04:39:07;;;;;;;22.73;9.57;;;16.60;99.90;;;;;;5055247;28;20025;-67
2023/08/02 04:41:33;;;;;;;23.35;9.95;;;16.70;99.90;;;;;;5055114;28;20021;-67
2023/08/02 04:43:58;;;;;;;20.80;9.45;;;16.60;99.90;;;;;;5055718;28;20037;-67
2023/08/02 04:46:27;;;;;;;24.77;9.75;;;16.60;99.90;;;;;;5053497;28;20032;-68
2023/08/02 04:48:53;;;;;;;25.50;9.50;;;16.60;99.90;;;;;;5054772;28;20041;-67
2023/08/02 04:51:18;;;;;;;23.45;10.55;;;16.50;99.90;;;;;;5054869;28;20032;-67
2023/08/02 04:53:47;;;;;;;23.95;10.10;;;16.40;99.90;;;;;;5054842;28;20025;-67
2023/08/02 04:56:13;;;;;;;25.20;10.02;;;16.30;99.90;;;;;;5055116;28;20494;-68
2023/08/02 04:58:38;;;;;;;22.40;10.00;;;16.30;99.90;;;;;;5053654;28;20033;-67
2023/08/02 05:01:04;;;;;;;25.00;10.27;;;16.20;99.90;;;;;;5055036;28;20074;-67
2023/08/02 05:03:30;;;;;;;20.65;9.43;;;16.10;99.90;;;;;;5054683;28;20067;-67
2023/08/02 05:06:05;;;;;;;25.00;10.95;;;16.10;99.90;;;;;;5055003;28;20029;-67
2023/08/02 05:08:32;;;;;;;27.48;12.93;;;16.00;99.90;;;;;;5054895;28;20037;-67
2023/08/02 05:10:58;;;;;;;23.88;11.05;;;16.00;99.90;;;;;;5054993;28;20112;-67
2023/08/02 05:13:27;;;;;;;26.13;10.30;;;16.00;99.90;;;;;;5054788;28;20437;-67
2023/08/02 05:15:54;;;;;;;20.33;9.60;;;16.00;99.90;;;;;;5054776;28;20044;-68
2023/08/02 05:18:19;;;;;;;20.90;9.13;;;15.90;99.90;;;;;;5054477;28;20055;-68
2023/08/02 05:20:45;;;;;;;20.73;9.15;;;15.90;99.90;;;;;;5054062;28;20465;-68
2023/08/02 05:23:11;;;;;;;23.55;9.55;;;15.90;99.90;;;;;;5054236;28;20483;-68
2023/08/02 05:25:37;;;;;;;19.52;10.50;;;15.90;99.90;;;;;;5054418;28;20457;-68
2023/08/02 05:28:02;;;;;;;20.10;9.48;;;15.90;99.90;;;;;;5054168;28;20472;-68
2023/08/02 05:30:29;;;;;;;23.17;8.93;;;15.90;99.90;;;;;;5054229;28;20516;-68
2023/08/02 05:32:55;;;;;;;21.50;9.73;;;15.90;99.90;;;;;;5054055;28;20033;-68
2023/08/02 05:35:21;;;;;;;21.42;9.15;;;15.90;99.90;;;;;;5054151;28;20028;-68
2023/08/02 05:37:47;;;;;;;24.98;9.77;;;15.90;99.90;;;;;;5054464;28;20033;-68
2023/08/02 05:40:12;;;;;;;19.63;9.30;;;15.90;99.90;;;;;;5054285;28;20032;-66
2023/08/02 05:42:38;;;;;;;20.15;8.65;;;15.90;99.90;;;;;;5053788;28;20543;-67
2023/08/02 05:45:04;;;;;;;17.67;8.45;;;15.90;99.90;;;;;;5054029;28;20040;-66
2023/08/02 05:47:30;;;;;;;26.15;14.35;;;15.90;99.90;;;;;;5053851;28;20028;-67
2023/08/02 05:49:56;;;;;;;25.50;11.15;;;15.90;99.90;;;;;;5053649;28;20146;-66
2023/08/02 05:52:22;;;;;;;20.40;9.70;;;15.90;99.90;;;;;;5053921;28;20542;-67
2023/08/02 05:54:47;;;;;;;23.52;9.38;;;15.90;99.90;;;;;;5053349;28;20033;-67
2023/08/02 05:57:13;;;;;;;21.63;11.25;;;15.90;99.90;;;;;;5053848;28;20113;-67
2023/08/02 05:59:38;;;;;;;22.45;11.93;;;15.90;99.90;;;;;;5052569;28;20031;-67
2023/08/02 06:02:06;;;;;;;21.15;10.40;;;15.90;99.90;;;;;;5052563;28;20434;-66
2023/08/02 06:04:35;;;;;;;25.55;14.57;;;15.90;99.90;;;;;;5053089;28;20029;-67
2023/08/02 06:07:01;;;;;;;22.13;9.02;;;15.90;99.90;;;;;;5053651;28;20021;-67
2023/08/02 06:09:27;;;;;;;21.33;11.10;;;16.00;99.90;;;;;;5053716;28;20060;-67
2023/08/02 06:11:52;;;;;;;20.13;8.75;;;16.00;99.90;;;;;;5053670;28;20025;-67
2023/08/02 06:14:18;;;;;;;20.55;9.18;;;16.00;99.90;;;;;;5053318;28;20036;-67
2023/08/02 06:16:43;;;;;;;21.27;9.50;;;16.00;99.90;;;;;;5053386;28;20021;-68
2023/08/02 06:19:09;;;;;;;22.15;10.55;;;16.00;99.90;;;;;;5053372;28;20025;-68
2023/08/02 06:21:35;;;;;;;20.15;9.90;;;16.00;99.90;;;;;;5053152;28;20033;-68
2023/08/02 06:24:01;;;;;;;24.05;11.57;;;16.00;99.90;;;;;;5052942;28;20167;-68
2023/08/02 06:26:27;;;;;;;21.15;10.63;;;16.00;99.90;;;;;;5053002;28;20115;-68
2023/08/02 06:28:53;;;;;;;19.00;10.43;;;16.00;99.90;;;;;;5052759;28;20056;-68
2023/08/02 06:31:19;;;;;;;20.13;10.80;;;16.00;99.90;;;;;;5052914;28;20031;-68
2023/08/02 06:33:44;;;;;;;18.42;10.32;;;16.00;99.90;;;;;;5051596;28;20025;-68
2023/08/02 06:36:10;;;;;;;20.50;12.05;;;16.10;99.90;;;;;;5053020;28;20029;-68
2023/08/02 06:38:35;;;;;;;22.88;13.80;;;16.10;99.90;;;;;;5052393;28;20424;-68
2023/08/02 06:41:02;;;;;;;25.85;12.65;;;16.00;99.90;;;;;;5051977;28;20052;-68
2023/08/02 06:43:27;;;;;;;21.23;12.18;;;16.00;99.90;;;;;;5053197;28;20037;-68
2023/08/02 06:45:53;;;;;;;26.38;15.25;;;16.00;99.90;;;;;;5052903;28;20071;-67
2023/08/02 06:48:22;;;;;;;22.20;13.15;;;15.90;99.90;;;;;;5051595;28;20033;-67
2023/08/02 06:50:47;;;;;;;23.02;13.10;;;16.00;99.90;;;;;;5052991;28;20029;-67
2023/08/02 06:53:13;;;;;;;22.35;14.10;;;16.00;99.90;;;;;;5052713;28;20478;-68
2023/08/02 06:55:39;;;;;;;22.95;12.80;;;16.00;99.90;;;;;;5052568;28;20025;-68
2023/08/02 06:58:04;;;;;;;22.98;13.57;;;16.00;99.90;;;;;;5052676;28;20083;-68
2023/08/02 07:00:32;;;;;;;22.80;12.93;;;16.00;99.90;;;;;;5052657;28;20021;-68
2023/08/02 07:02:59;;;;;;;21.33;11.65;;;16.00;99.90;;;;;;5052194;28;20536;-69
2023/08/02 07:05:28;;;;;;;20.73;11.35;;;16.10;99.90;;;;;;5052612;28;20021;-69
2023/08/02 07:07:57;;;;;;;18.15;10.07;;;16.10;99.90;;;;;;5052631;28;20032;-69
2023/08/02 07:10:27;;;;;;;20.77;10.30;;;16.10;99.90;;;;;;5052817;28;20080;-68
2023/08/02 07:12:53;;;;;;;15.55;8.80;;;16.10;99.90;;;;;;5052603;28;20035;-68
2023/08/02 07:15:19;;;;;;;17.15;8.82;;;16.20;99.90;;;;;;5052378;28;20032;-69
2023/08/02 07:17:46;;;;;;;13.23;7.35;;;16.20;99.90;;;;;;5052724;28;20033;-69
2023/08/02 07:20:12;;;;;;;14.75;7.18;;;16.20;99.90;;;;;;5052538;28;20025;-69
2023/08/02 07:22:39;;;;;;;13.43;7.10;;;16.20;99.90;;;;;;5052387;28;20381;-69
2023/08/02 07:25:05;;;;;;;17.65;7.07;;;16.20;99.90;;;;;;5052329;28;20124;-69
2023/08/02 07:27:31;;;;;;;12.75;6.47;;;16.20;99.90;;;;;;5051920;28;20144;-68
2023/08/02 07:29:56;;;;;;;13.40;6.38;;;16.30;99.90;;;;;;5051224;28;20080;-68
2023/08/02 07:32:23;;;;;;;10.30;6.15;;;16.30;99.90;;;;;;5052042;28;20029;-68
2023/08/02 07:34:48;;;;;;;12.73;6.10;;;16.30;99.90;;;;;;5051979;28;20033;-68
2023/08/02 07:37:14;;;;;;;11.77;6.20;;;16.30;99.90;;;;;;5051769;28;20021;-67
2023/08/02 07:39:40;;;;;;;12.20;6.25;;;16.40;99.90;;;;;;5052562;28;20428;-68
2023/08/02 07:42:07;;;;;;;12.75;6.65;;;16.40;99.90;;;;;;5052612;28;20423;-69
2023/08/02 07:44:32;;;;;;;9.02;6.32;;;16.40;99.90;;;;;;5051031;28;20357;-68
2023/08/02 07:46:58;;;;;;;12.70;6.10;;;16.40;99.90;;;;;;5052387;28;20031;-68
2023/08/02 07:49:23;;;;;;;11.88;6.13;;;16.50;99.90;;;;;;5049563;28;20044;-70
2023/08/02 07:51:49;;;;;;;13.52;5.95;;;16.50;99.90;;;;;;5056045;28;20035;-68
2023/08/02 07:54:14;;;;;;;12.00;5.07;;;16.60;99.90;;;;;;5055947;28;20053;-69
2023/08/02 07:56:40;;;;;;;7.53;4.63;;;16.60;99.90;;;;;;5054899;28;20067;-69
2023/08/02 07:59:05;;;;;;;10.68;5.22;;;16.60;99.90;;;;;;5055670;28;20060;-69
2023/08/02 08:01:31;;;;;;;8.60;4.60;;;16.70;99.90;;;;;;5054809;28;20064;-69
2023/08/02 08:03:57;;;;;;;7.47;4.20;;;16.70;99.90;;;;;;5055833;28;20025;-69
2023/08/02 08:06:23;;;;;;;8.13;3.88;;;16.70;99.90;;;;;;5056052;28;20051;-70
2023/08/02 08:08:50;;;;;;;5.47;3.65;;;16.70;99.90;;;;;;5056028;28;20045;-69
2023/08/02 08:11:15;;;;;;;7.47;3.53;;;16.70;99.90;;;;;;5055703;28;20029;-69
2023/08/02 08:13:41;;;;;;;9.02;4.60;;;16.70;99.90;;;;;;5055557;28;20029;-69
2023/08/02 08:16:07;;;;;;;3.22;2.47;;;16.70;99.90;;;;;;5055966;28;20029;-69
2023/08/02 08:18:33;;;;;;;4.63;2.55;;;16.70;99.90;;;;;;5055800;28;20035;-70
2023/08/02 08:21:01;;;;;;;4.13;2.53;;;16.80;99.90;;;;;;5055803;28;20036;-70
2023/08/02 08:23:27;;;;;;;8.18;2.60;;;16.80;99.90;;;;;;5054752;28;20028;-70
2023/08/02 08:25:53;;;;;;;15.50;2.90;;;16.90;99.90;;;;;;5053934;28;20028;-70
2023/08/02 08:28:18;;;;;;;206.70;20.10;;;16.90;99.90;;;;;;5053793;28;20048;-70
2023/08/02 08:30:44;;;;;;;2.78;2.00;;;17.00;99.90;;;;;;5054021;28;20457;-69
2023/08/02 08:33:10;;;;;;;3.58;2.33;;;17.00;99.90;;;;;;5053875;28;20365;-69
2023/08/02 08:35:36;;;;;;;4.05;2.47;;;17.00;99.90;;;;;;5053567;28;20396;-69
2023/08/02 08:38:02;;;;;;;9.75;5.53;;;17.10;99.90;;;;;;5054490;28;20552;-68
2023/08/02 08:40:28;;;;;;;7.13;3.72;;;17.20;99.90;;;;;;5055381;28;20094;-68
2023/08/02 08:42:55;;;;;;;1.65;1.30;;;17.10;99.90;;;;;;5055375;28;20412;-68
2023/08/02 08:45:25;;;;;;;4.00;2.90;;;17.10;99.90;;;;;;5053158;28;20083;-69
2023/08/02 08:47:52;;;;;;;2.03;1.77;;;17.00;99.90;;;;;;5054247;28;20025;-69
2023/08/02 08:50:20;;;;;;;9.40;4.75;;;17.00;99.90;;;;;;5056482;28;20111;-68
2023/08/02 08:52:48;;;;;;;3.85;1.60;;;17.00;99.90;;;;;;5074998;28;20036;-68
2023/08/02 08:55:15;;;;;;;2.75;1.70;;;17.10;99.90;;;;;;5067083;28;20029;-68
2023/08/02 08:57:42;;;;;;;3.42;1.73;;;17.20;99.90;;;;;;5046360;28;20033;-69
2023/08/02 09:00:09;;;;;;;4.40;2.03;;;17.30;99.90;;;;;;5034452;28;20531;-69
2023/08/02 09:02:39;;;;;;;2.15;1.88;;;17.40;99.90;;;;;;5054197;28;20041;-68
2023/08/02 09:05:04;;;;;;;4.55;2.17;;;17.40;99.90;;;;;;5072759;28;20025;-69
2023/08/02 09:07:31;;;;;;;2.03;1.70;;;17.50;99.90;;;;;;5074453;28;20481;-69
2023/08/02 09:09:57;;;;;;;3.15;2.47;;;17.40;99.90;;;;;;5074795;28;20039;-69
2023/08/02 09:12:25;;;;;;;3.85;2.35;;;17.50;99.90;;;;;;5070222;28;20017;-69
2023/08/02 09:15:02;;;;;;;2.83;2.13;;;17.70;99.90;;;;;;5054963;28;20040;-67
2023/08/02 09:17:43;;;;;;;4.53;3.35;;;17.70;99.90;;;;;;5053166;28;20381;-70
2023/08/02 09:20:09;;;;;;;3.20;2.67;;;17.80;99.90;;;;;;5054854;28;20025;-69
2023/08/02 09:22:35;;;;;;;5.50;3.58;;;17.90;99.90;;;;;;5073253;28;20028;-69
2023/08/02 09:25:03;;;;;;;6.78;3.95;;;17.90;99.90;;;;;;5074401;28;20487;-68
2023/08/02 09:27:30;;;;;;;4.03;3.03;;;18.10;99.90;;;;;;5073260;28;20028;-68
2023/08/02 09:29:56;;;;;;;5.22;3.38;;;18.20;99.90;;;;;;5074137;28;20056;-67
2023/08/02 09:32:23;;;;;;;8.10;3.47;;;18.40;99.90;;;;;;5074173;28;20094;-67
2023/08/02 09:34:54;;;;;;;5.43;2.85;;;18.70;99.90;;;;;;5073916;28;20116;-68
2023/08/02 09:37:31;;;;;;;3.90;3.03;;;19.30;99.90;;;;;;5074327;28;20029;-67
2023/08/02 09:39:58;;;;;;;6.55;4.32;;;19.60;99.90;;;;;;5074479;28;20028;-67
2023/08/02 09:42:28;;;;;;;3.30;2.90;;;19.90;99.90;;;;;;5074421;28;20032;-67
2023/08/02 09:45:03;;;;;;;3.30;2.83;;;20.10;99.90;;;;;;5074384;28;20032;-67
2023/08/02 09:47:29;;;;;;;4.00;2.70;;;20.40;99.90;;;;;;5073831;28;20024;-67
2023/08/02 09:50:08;;;;;;;4.15;2.75;;;20.60;99.90;;;;;;5074068;28;20048;-67
2023/08/02 09:52:36;;;;;;;5.15;3.85;;;20.80;99.90;;;;;;5073594;28;20031;-68
2023/08/02 09:55:02;;;;;;;4.82;3.17;;;20.90;99.90;;;;;;5066067;28;20052;-67
2023/08/02 09:57:29;;;;;;;4.13;2.53;;;21.00;99.90;;;;;;5053915;28;20056;-68
2023/08/02 09:59:58;;;;;;;6.40;3.63;;;20.80;99.90;;;;;;5053422;28;20041;-69
2023/08/02 10:02:26;;;;;;;5.15;2.95;;;20.40;99.90;;;;;;5053646;28;20025;-70
2023/08/02 10:04:56;;;;;;;9.60;3.88;;;20.00;99.90;;;;;;5053413;28;20112;-69
2023/08/02 10:07:41;;;;;;;13.43;3.75;;;19.60;99.90;;;;;;5053713;28;20075;-69
2023/08/02 10:10:15;;;;;;;14.45;3.78;;;19.30;99.90;;;;;;5053646;28;20037;-68
2023/08/02 10:12:41;;;;;;;16.08;3.30;;;19.30;99.90;;;;;;5052335;28;20060;-68
2023/08/02 10:15:08;;;;;;;19.25;4.57;;;19.80;99.90;;;;;;5052598;28;20103;-67
2023/08/02 10:17:35;;;;;;;10.82;2.08;;;20.50;99.90;;;;;;5053150;28;20040;-68
2023/08/02 10:20:03;;;;;;;16.73;3.90;;;20.80;99.90;;;;;;5052939;28;20040;-68
2023/08/02 10:22:30;;;;;;;15.63;2.40;;;20.80;99.90;;;;;;5053259;28;20032;-68
2023/08/02 10:24:56;;;;;;;13.40;1.85;;;20.70;99.90;;;;;;5051451;28;20029;-68
2023/08/02 10:27:23;;;;;;;15.52;2.97;;;20.70;99.90;;;;;;5053236;28;20032;-68
2023/08/02 10:29:49;;;;;;;13.27;2.95;;;20.90;99.90;;;;;;5053222;28;20113;-68
2023/08/02 10:32:17;;;;;;;15.18;3.25;;;21.40;99.90;;;;;;5052899;28;20029;-68
2023/08/02 10:34:43;;;;;;;14.35;3.40;;;21.80;99.90;;;;;;5053313;28;20031;-68
2023/08/02 10:37:09;;;;;;;13.48;2.65;;;22.70;99.90;;;;;;5053234;28;20021;-68
2023/08/02 10:39:47;;;;;;;10.50;2.17;;;23.90;99.90;;;;;;5053073;28;20025;-67
2023/08/02 10:42:20;;;;;;;11.35;3.05;;;25.10;99.90;;;;;;5053371;28;20029;-67
2023/08/02 10:44:55;;;;;;;13.45;3.38;;;25.90;99.90;;;;;;5053211;28;20033;-66
2023/08/02 10:47:27;;;;;;;16.85;2.95;;;25.50;99.90;;;;;;5052975;28;20025;-66
2023/08/02 10:49:54;;;;;;;12.45;2.83;;;25.70;99.90;;;;;;5052289;28;20045;-66
2023/08/02 10:52:38;;;;;;;11.23;2.88;;;26.00;99.90;;;;;;5052634;28;20032;-66
2023/08/02 10:55:14;;;;;;;11.82;2.55;;;26.10;99.90;;;;;;5053025;28;20495;-67
2023/08/02 10:58:05;;;;;;;11.38;2.40;;;25.80;99.90;;;;;;5052854;28;20037;-67
2023/08/02 11:00:31;;;;;;;10.18;2.45;;;25.20;99.90;;;;;;5052266;28;20099;-67
2023/08/02 11:02:57;;;;;;;11.07;4.60;;;24.50;99.90;;;;;;5052848;28;20484;-66
2023/08/02 11:05:43;;;;;;;12.70;4.10;;;24.00;99.90;;;;;;5052908;28;20028;-67
2023/08/02 11:08:09;;;;;;;14.93;5.50;;;23.90;99.90;;;;;;5052725;28;20064;-66
2023/08/02 11:10:56;;;;;;;10.82;3.78;;;23.90;99.90;;;;;;5052733;28;20060;-67
2023/08/02 11:13:41;;;;;;;12.68;5.22;;;24.90;99.90;;;;;;5052592;28;20046;-66
2023/08/02 11:16:07;;;;;;;16.08;5.97;;;25.80;99.90;;;;;;5052616;28;20105;-67
2023/08/02 11:18:33;;;;;;;15.75;4.15;;;26.80;99.90;;;;;;5050409;28;20107;-67
2023/08/02 11:21:15;;;;;;;11.73;3.50;;;26.90;99.90;;;;;;5051870;28;20492;-66
2023/08/02 11:23:41;;;;;;;12.60;3.67;;;27.10;99.90;;;;;;5052228;28;20051;-66
2023/08/02 11:26:14;;;;;;;12.38;4.60;;;27.10;99.90;;;;;;5052439;28;20044;-66
2023/08/02 11:28:42;;;;;;;14.52;2.88;;;27.00;99.90;;;;;;5052149;28;20057;-66
2023/08/02 11:31:09;;;;;;;12.95;3.05;;;27.00;99.90;;;;;;5052404;28;20036;-66
2023/08/02 11:33:35;;;;;;;7.47;1.98;;;27.20;99.90;;;;;;5052433;28;20483;-66
2023/08/02 11:36:00;;;;;;;9.18;2.10;;;27.40;99.90;;;;;;5051533;28;20025;-67
2023/08/02 11:38:26;;;;;;;10.50;1.92;;;27.60;99.90;;;;;;5055322;28;20110;-67
2023/08/02 11:40:52;;;;;;;12.02;3.40;;;28.10;99.90;;;;;;5066978;28;20040;-67
2023/08/02 11:43:17;;;;;;;8.82;2.28;;;28.70;99.00;;;;;;5052246;28;20025;-66
2023/08/02 11:45:43;;;;;;;9.90;2.58;;;28.60;97.90;;;;;;5062064;28;20043;-66
2023/08/02 11:48:25;;;;;;;12.05;2.28;;;28.40;98.90;;;;;;5070413;28;20033;-66
2023/08/02 11:50:51;;;;;;;11.45;2.15;;;28.20;98.90;;;;;;5072416;28;20063;-66
2023/08/02 11:53:16;;;;;;;7.28;2.03;;;28.00;99.20;;;;;;5069619;28;20560;-67
2023/08/02 11:55:42;;;;;;;10.18;1.80;;;28.00;99.00;;;;;;5051980;28;20082;-66
2023/08/02 11:58:08;;;;;;;10.63;2.28;;;27.70;99.20;;;;;;5051998;28;20078;-67
2023/08/02 12:00:35;;;;;;;10.25;3.10;;;27.50;99.20;;;;;;5052223;28;20033;-65
2023/08/02 12:03:08;;;;;;;11.40;2.05;;;27.60;99.20;;;;;;5052024;28;20036;-66
2023/08/02 12:05:34;;;;;;;13.70;2.47;;;27.60;99.00;;;;;;5051640;28;20029;-66
2023/08/02 12:08:10;;;;;;;14.57;3.10;;;27.70;98.80;;;;;;5052136;28;20028;-66
2023/08/02 12:10:38;;;;;;;11.55;2.63;;;27.70;98.60;;;;;;5056429;28;20064;-66
2023/08/02 12:13:08;;;;;;;14.23;2.75;;;27.70;99.30;;;;;;5053652;28;20025;-66
2023/08/02 12:15:35;;;;;;;9.27;1.90;;;27.90;99.10;;;;;;5052127;28;20491;-66
2023/08/02 12:18:03;;;;;;;13.77;2.60;;;27.90;98.40;;;;;;5051837;28;20037;-65
2023/08/02 12:20:33;;;;;;;12.32;2.85;;;28.00;98.70;;;;;;5052040;28;20033;-66
2023/08/02 12:22:59;;;;;;;9.57;2.00;;;28.10;98.10;;;;;;5050903;28;20107;-66
2023/08/02 12:25:25;;;;;;;15.48;3.30;;;27.70;98.30;;;;;;5051578;28;20067;-66
2023/08/02 12:28:06;;;;;;;17.83;2.88;;;27.40;98.90;;;;;;5051011;28;20119;-67
2023/08/02 12:30:32;;;;;;;;;;;27.40;98.90;;;;;;5052433;28;20160;-67
2023/08/02 12:32:58;;;;;;;15.93;2.53;;;27.40;98.70;;;;;;5051897;28;20007;-66
2023/08/02 12:35:24;;;;;;;13.88;2.53;;;26.90;99.00;;;;;;5051791;28;20031;-65
2023/08/02 12:37:53;;;;;;;18.02;3.25;;;26.80;99.50;;;;;;5055562;28;20021;-66